This is the latest recevied weather packets stored in our database for station/object DB8NZ-11. If no packets are shown the sender has not sent any weather packets the latest 10 day(s).
| Time | Temp. | Humidity | Pressure | Rain* | Wind** | Luminosity | Snow |
|---|---|---|---|---|---|---|---|
| 1778090777 | 16.67° C | 62% | 1011.3 hPa | - | - | - | - |
| 1778089877 | 16.67° C | 61% | 1011.2 hPa | - | - | - | - |
| 1778089420 | 17.22° C | 60% | 1011.1 hPa | - | - | - | - |
| 1778088520 | 17.78° C | 59% | 1011 hPa | - | - | - | - |
| 1778087620 | 17.78° C | 58% | 1010.9 hPa | - | - | - | - |
| 1778086854 | 18.33° C | 56% | 1010.8 hPa | - | - | - | - |
| 1778085954 | 18.89° C | 55% | 1010.7 hPa | - | - | - | - |
| 1778085054 | 18.89° C | 55% | 1010.5 hPa | - | - | - | - |
| 1778084154 | 18.89° C | 56% | 1010.6 hPa | - | - | - | - |
| 1778083254 | 18.89° C | 54% | 1010.5 hPa | - | - | - | - |
| 1778082353 | 18.89° C | 53% | 1010.9 hPa | - | - | - | - |
| 1778081882 | 18.33° C | 54% | 1010.9 hPa | - | - | - | - |
| 1778081748 | 18.33° C | 54% | 1011 hPa | - | - | - | - |
| 1778081709 | 18.33° C | 55% | 1011 hPa | - | - | - | - |
| 1778081657 | 18.33° C | 55% | 1011 hPa | - | - | - | - |
| 1778081625 | 18.33° C | 55% | 1011 hPa | - | - | - | - |
| 1778080723 | 17.78° C | 55% | 1011.2 hPa | - | - | - | - |
| 1778079823 | 17.78° C | 54% | 1011.2 hPa | - | - | - | - |
| 1778078925 | 17.78° C | 54% | 1011.2 hPa | - | - | - | - |
| 1778078022 | 18.89° C | 54% | 1011.2 hPa | - | - | - | - |
| 1778077120 | 19.44° C | 49% | 1010.9 hPa | - | - | - | - |
| 1778076766 | 20° C | 48% | 1010.9 hPa | - | - | - | - |
| 1778075866 | 21.11° C | 45% | 1010.8 hPa | - | - | - | - |
| 1778075113 | 21.67° C | 45% | 1010.7 hPa | - | - | - | - |
| 1778074795 | 22.22° C | 42% | 1010.8 hPa | - | - | - | - |
* Rain since midnight (hover to see other rain measurements)
** Current wind speed in m/s (hover to see current wind gust speed)